• Join FlightAware (Why Join?)
  • Login
  • US Flag 
11:24AM EST


 

Airport Tracker/Info


-or-


 

Live Flight TrackerFlight Track Log ✈ KAP747 ✈ 23-May-2013 ✈ KHPN - KLEB

Flight Track Log - Related Links

Times and Time Zones

All times are in EDT time to prevent confusion due to time zone crossing. See the KAP747 flight status page for this flight to view local times or setup timezone preferences in your user account.

Time Position Orientation Groundspeed Altitude Reporting Facility
EDT Latitude Longitude Course Direction KTS MPH feet Rate Location/Type
08:50AM 41.0667 -73.6000 90° East 144 166 2,300  Level New York TRACON
08:51AM 41.1167 -73.6000 360° North 139 160 2,800 360 Climbing New York TRACON
08:52AM 41.1500 -73.6000 360° North 151 174 3,100 540 Climbing New York TRACON
08:53AM 41.1833 -73.6000 360° North 146 168 3,900 780 Climbing New York TRACON
08:54AM 41.2333 -73.6000 360° North 141 162 4,600 720 Climbing New York TRACON
08:55AM 41.2667 -73.5833 21° North 141 162 5,400 660 Climbing New York TRACON
08:56AM 41.3000 -73.5667 21° North 150 173 6,000 600 Climbing New York TRACON
08:57AM 41.3333 -73.5167 48° Northeast 146 168 6,600 420 Climbing New York TRACON
08:58AM 41.3500 -73.4833 56° Northeast 153 176 7,000 180 Climbing New York TRACON
08:59AM 41.4000 -73.4333 37° Northeast 187 215 7,000  Level New York TRACON
08:59AM 41.4000 -73.4197 90° East 190 219 7,000 60 Level Boston Center
09:00AM 41.4294 -73.3897 37° Northeast 193 222 7,100  Climbing Boston Center
09:01AM 41.4694 -73.3433 41° Northeast 190 219 7,100 -60 Level Boston Center
09:02AM 41.5053 -73.2883 49° Northeast 190 219 7,000 -60 Descending Boston Center
09:03AM 41.5472 -73.2417 40° Northeast 192 221 7,000  Level Boston Center
09:04AM 41.5831 -73.1894 47° Northeast 191 220 7,000  Level Boston Center
09:05AM 41.6189 -73.1369 48° Northeast 194 223 7,000  Level Boston Center
09:06AM 41.6669 -73.0931 34° Northeast 194 223 7,000  Level Boston Center
09:07AM 41.7233 -73.0769 12° North 191 220 7,100  Climbing Boston Center
09:08AM 41.7736 -73.0553 18° North 190 219 7,000 -60 Descending Boston Center
09:09AM 41.8258 -73.0333 17° North 191 220 7,000  Level Boston Center
09:10AM 41.8781 -73.0089 19° North 193 222 7,000  Level Boston Center
09:11AM 41.9281 -72.9869 18° North 192 221 7,100  Climbing Boston Center
09:12AM 41.9783 -72.9622 20° North 193 222 7,000 -60 Descending Boston Center
09:13AM 42.0283 -72.9403 18° North 192 221 7,000  Level Boston Center
09:14AM 42.0806 -72.9211 15° North 190 219 7,000  Level Boston Center
09:15AM 42.1222 -72.9019 19° North 194 223 7,000  Level Boston Center
09:16AM 42.1767 -72.8772 19° North 194 223 7,000  Level Boston Center
09:17AM 42.2244 -72.8578 17° North 194 223 7,000  Level Boston Center
09:18AM 42.2789 -72.8331 19° North 194 223 7,000  Level Boston Center
09:19AM 42.3228 -72.8136 18° North 220 253 7,000  Level Boston Center
09:20AM 42.3750 -72.7886 19° North 200 230 7,000  Level Boston Center
09:21AM 42.4250 -72.7664 18° North 188 216 7,000  Level Boston Center
09:22AM 42.4792 -72.7442 17° North 188 216 7,100  Climbing Boston Center
09:23AM 42.5356 -72.7189 18° North 188 216 7,000 -60 Descending Boston Center
09:24AM 42.5814 -72.7022 15° North 188 216 7,000 -60 Level Boston Center
09:25AM 42.6378 -72.6828 14° North 188 216 6,900 -60 Descending Boston Center
09:26AM 42.6858 -72.6633 17° North 182 209 6,900  Level Boston Center
09:27AM 42.7233 -72.6464 18° North 182 209 6,900  Level Boston Center
09:28AM 42.7794 -72.6239 16° North 177 204 7,000  Climbing Boston Center
09:29AM 42.8256 -72.6014 20° North 177 204 7,000  Level Boston Center
09:30AM 42.8756 -72.5817 16° North 177 204 7,000  Level Boston Center
09:31AM 42.9192 -72.5619 18° North 177 204 7,100  Climbing Boston Center
09:32AM 42.9714 -72.5450 13° North 177 204 7,000 -60 Descending Boston Center
09:33AM 43.0194 -72.5339 10° North 183 211 7,000  Level Boston Center
09:35AM 43.0694 -72.5197 12° North 183 211 7,000  Level Boston Center
09:36AM 43.1297 -72.5028 12° North 183 211 7,100  Climbing Boston Center
09:37AM 43.1819 -72.4883 11° North 183 211 7,100 -60 Level Boston Center
09:38AM 43.2319 -72.4742 12° North 183 211 7,000 -60 Descending Boston Center
09:39AM 43.2819 -72.4600 12° North 183 211 7,000  Level Boston Center
09:40AM 43.3319 -72.4458 12° North 183 211 7,000  Level Boston Center
09:41AM 43.3842 -72.4317 11° North 183 211 7,000 -60 Level Boston Center
09:42AM 43.4342 -72.4172 12° North 183 211 6,900 -60 Descending Boston Center
09:43AM 43.4819 -72.4058 10° North 183 211 6,900 -60 Level Boston Center
09:44AM 43.5319 -72.3914 12° North 183 211 6,800 -360 Descending Boston Center
09:45AM 43.5861 -72.3800 North 188 216 6,200 -540 Descending Boston Center
09:46AM 43.6300 -72.3683 11° North 188 216 5,800 -360 Descending Boston Center
09:47AM 43.6925 -72.3453 15° North 193 222 5,500 -240 Descending Boston Center
09:48AM 43.7444 -72.3394 North 193 222 5,400 -300 Descending Boston Center
09:49AM 43.7944 -72.3508 351° North 181 208 4,900 -600 Descending Boston Center
09:50AM 43.8425 -72.3192 25° Northeast 181 208 4,300 -360 Descending Boston Center
09:51AM 43.8925 -72.3075 10° North 172 198 4,200 -240 Descending Boston Center
09:53AM 43.8088 -72.3100 181° South  Level FlightAware Approximate
09:54AM 43.7675 -72.3367 181° South 172 198 3,300  Level Boston Center
09:56AM 43.7097 -72.3304 176° South  Level FlightAware Approximate
10:03AM 43.6261 -72.3042 20° North  Level Estimated
10:04AM 43.6261 -72.3042 20° North  Level Estimated
10:05AM 43.6261 -72.3042 20° North  Level Estimated